Time,TemperatureF,DewpointF,PressureIn,WindDirection,WindDirectionDegrees,WindSpeedMPH,WindSpeedGustMPH,Humidity,HourlyPrecipIn,Conditions,Clouds,dailyrainin,SoftwareType,DateUTC
2013-07-08 00:00:00,68.0,66.5,29.97,East,100,0.0,4.0,95,0.00,,---,0.03,VWS V14.01,2013-07-08 04:00:00,
2013-07-08 00:01:00,68.0,66.5,29.98,East,100,0.0,2.0,95,0.00,,---,0.00,VWS V14.01,2013-07-08 04:01:00,
2013-07-08 00:06:00,68.2,67.0,29.99,East,100,1.0,3.0,96,0.00,,---,0.00,VWS V14.01,2013-07-08 04:06:00,
2013-07-08 00:12:00,68.4,67.2,29.98,East,100,3.0,3.0,96,0.00,,---,0.00,VWS V14.01,2013-07-08 04:12:00,
2013-07-08 00:17:00,68.5,67.3,29.98,East,101,1.0,3.0,96,0.00,,---,0.00,VWS V14.01,2013-07-08 04:17:00,
2013-07-08 00:22:00,68.7,67.5,29.98,East,100,1.0,3.0,96,0.00,,---,0.00,VWS V14.01,2013-07-08 04:22:00,
2013-07-08 00:27:00,68.7,67.5,29.98,East,100,1.0,3.0,96,0.00,,---,0.00,VWS V14.01,2013-07-08 04:27:00,
2013-07-08 00:30:00,68.3,67.1,29.97,East,100,0.0,3.0,96,0.00,,---,0.03,VWS V14.01,2013-07-08 04:30:00,
2013-07-08 00:32:00,68.7,67.5,29.98,East,100,0.0,3.0,96,0.00,,---,0.00,VWS V14.01,2013-07-08 04:32:00,
2013-07-08 00:37:00,68.8,67.6,29.98,East,101,0.0,3.0,96,0.00,,---,0.00,VWS V14.01,2013-07-08 04:37:00,
2013-07-08 00:42:00,68.8,67.6,29.98,East,101,0.0,3.0,96,0.00,,---,0.00,VWS V14.01,2013-07-08 04:42:00,
2013-07-08 00:47:00,69.0,67.8,29.98,East,101,2.0,4.0,96,0.00,,---,0.00,VWS V14.01,2013-07-08 04:47:00,
2013-07-08 00:52:00,69.2,68.0,29.97,East,101,2.0,5.0,96,0.00,,---,0.00,VWS V14.01,2013-07-08 04:52:00,
2013-07-08 00:57:00,69.2,68.0,29.97,East,101,2.0,5.0,96,0.00,,---,0.00,VWS V14.01,2013-07-08 04:57:00,
2013-07-08 01:00:00,68.0,66.5,29.98,East,100,0.0,3.0,95,0.00,,---,0.00,VWS V14.01,2013-07-08 05:00:00,
2013-07-08 01:02:00,69.2,68.0,29.97,East,101,1.0,4.0,96,0.00,,---,0.00,VWS V14.01,2013-07-08 05:02:00,
2013-07-08 01:07:00,69.2,68.0,29.97,East,101,2.0,4.0,96,0.00,,---,0.00,VWS V14.01,2013-07-08 05:07:00,
2013-07-08 01:12:00,69.2,68.0,29.97,ESE,105,2.0,4.0,96,0.00,,---,0.00,VWS V14.01,2013-07-08 05:12:00,
2013-07-08 01:17:00,69.0,67.8,29.96,ESE,104,0.0,4.0,96,0.00,,---,0.00,VWS V14.01,2013-07-08 05:17:00,
2013-07-08 01:22:00,69.0,67.5,29.96,ESE,104,1.0,4.0,95,0.00,,---,0.00,VWS V14.01,2013-07-08 05:22:00,
2013-07-08 01:27:00,68.8,67.3,29.96,ESE,104,0.0,4.0,95,0.00,,---,0.00,VWS V14.01,2013-07-08 05:27:00,
2013-07-08 01:30:00,68.7,67.5,29.98,East,100,0.0,3.0,96,0.00,,---,0.00,VWS V14.01,2013-07-08 05:30:00,
2013-07-08 01:32:00,68.7,67.2,29.96,ESE,104,1.0,3.0,95,0.00,,---,0.00,VWS V14.01,2013-07-08 05:32:00,
2013-07-08 01:37:00,68.5,66.7,29.97,SE,140,2.0,5.0,94,0.00,,---,0.00,VWS V14.01,2013-07-08 05:37:00,
2013-07-08 01:42:00,68.7,66.9,29.97,SSW,203,2.0,5.0,94,0.00,,---,0.00,VWS V14.01,2013-07-08 05:42:00,
2013-07-08 01:47:00,68.8,67.3,29.97,SSW,203,3.0,5.0,95,0.00,,---,0.00,VWS V14.01,2013-07-08 05:47:00,
2013-07-08 01:52:00,69.0,67.5,29.97,SSW,203,0.0,5.0,95,0.00,,---,0.00,VWS V14.01,2013-07-08 05:52:00,
2013-07-08 01:57:00,69.0,67.2,29.97,SSW,202,1.0,5.0,94,0.00,,---,0.00,VWS V14.01,2013-07-08 05:57:00,
2013-07-08 02:00:00,69.2,68.0,29.97,East,101,1.0,5.0,96,0.00,,---,0.00,VWS V14.01,2013-07-08 06:00:00,
2013-07-08 02:02:00,69.0,67.5,29.97,SSW,203,2.0,2.0,95,0.00,,---,0.00,VWS V14.01,2013-07-08 06:02:00,
2013-07-08 02:07:00,69.0,67.5,29.97,SSW,203,3.0,4.0,95,0.00,,---,0.00,VWS V14.01,2013-07-08 06:07:00,
2013-07-08 02:12:00,69.2,67.4,29.97,SSW,203,2.0,4.0,94,0.00,,---,0.00,VWS V14.01,2013-07-08 06:12:00,
2013-07-08 02:17:00,69.2,67.4,29.97,SSW,204,0.0,4.0,94,0.00,,---,0.00,VWS V14.01,2013-07-08 06:17:00,
2013-07-08 02:22:00,69.2,67.4,29.97,SSW,204,0.0,4.0,94,0.00,,---,0.00,VWS V14.01,2013-07-08 06:22:00,
2013-07-08 02:27:00,69.0,67.2,29.98,SSW,204,1.0,4.0,94,0.00,,---,0.00,VWS V14.01,2013-07-08 06:27:00,
2013-07-08 02:30:00,68.8,67.3,29.96,ESE,104,1.0,4.0,95,0.00,,---,0.00,VWS V14.01,2013-07-08 06:30:00,
2013-07-08 02:32:00,68.8,67.0,29.98,SSW,204,1.0,3.0,94,0.00,,---,0.00,VWS V14.01,2013-07-08 06:32:00,
2013-07-08 02:37:00,68.8,67.0,29.98,SSW,204,1.0,3.0,94,0.00,,---,0.00,VWS V14.01,2013-07-08 06:37:00,
2013-07-08 02:42:00,68.8,67.0,29.98,SSW,204,1.0,3.0,94,0.00,,---,0.00,VWS V14.01,2013-07-08 06:42:00,
2013-07-08 02:47:00,68.8,67.0,29.97,SSW,204,0.0,3.0,94,0.00,,---,0.00,VWS V14.01,2013-07-08 06:47:00,
2013-07-08 02:52:00,68.7,66.9,29.97,SSW,204,3.0,3.0,94,0.00,,---,0.00,VWS V14.01,2013-07-08 06:52:00,
2013-07-08 02:57:00,68.5,66.4,29.97,SSW,204,0.0,3.0,93,0.00,,---,0.00,VWS V14.01,2013-07-08 06:57:00,
2013-07-08 03:00:00,69.0,67.2,29.97,SSW,203,1.0,5.0,94,0.00,,---,0.00,VWS V14.01,2013-07-08 07:00:00,
2013-07-08 03:02:00,68.3,66.5,29.97,SSW,204,1.0,3.0,94,0.00,,---,0.00,VWS V14.01,2013-07-08 07:02:00,
2013-07-08 03:07:00,68.2,66.4,29.97,SSW,204,0.0,3.0,94,0.00,,---,0.00,VWS V14.01,2013-07-08 07:07:00,
2013-07-08 03:12:00,68.0,66.2,29.97,SSW,204,0.0,3.0,94,0.00,,---,0.00,VWS V14.01,2013-07-08 07:12:00,
2013-07-08 03:17:00,68.0,66.2,29.97,SSW,204,1.0,3.0,94,0.00,,---,0.00,VWS V14.01,2013-07-08 07:17:00,
2013-07-08 03:22:00,67.8,66.0,29.97,SSW,204,1.0,3.0,94,0.00,,---,0.00,VWS V14.01,2013-07-08 07:22:00,
2013-07-08 03:27:00,67.9,66.1,29.97,SSW,204,1.0,3.0,94,0.00,,---,0.00,VWS V14.01,2013-07-08 07:27:00,
2013-07-08 03:30:00,69.0,67.2,29.98,SSW,204,2.0,4.0,94,0.00,,---,0.00,VWS V14.01,2013-07-08 07:30:00,
2013-07-08 03:32:00,68.0,66.2,29.97,SSW,204,2.0,4.0,94,0.00,,---,0.00,VWS V14.01,2013-07-08 07:32:00,
2013-07-08 03:37:00,68.0,66.2,29.97,SSE,163,2.0,5.0,94,0.00,,---,0.00,VWS V14.01,2013-07-08 07:37:00,
2013-07-08 03:42:00,68.0,66.2,29.96,SSE,163,2.0,5.0,94,0.00,,---,0.00,VWS V14.01,2013-07-08 07:42:00,
2013-07-08 03:47:00,68.0,66.2,29.96,SSE,163,2.0,5.0,94,0.00,,---,0.00,VWS V14.01,2013-07-08 07:47:00,
2013-07-08 03:52:00,68.0,65.9,29.96,SSE,162,1.0,5.0,93,0.00,,---,0.00,VWS V14.01,2013-07-08 07:52:00,
2013-07-08 03:57:00,67.8,66.0,29.95,SSE,163,4.0,5.0,94,0.00,,---,0.00,VWS V14.01,2013-07-08 07:57:00,
2013-07-08 04:00:00,68.3,66.5,29.97,SSW,204,0.0,3.0,94,0.00,,---,0.00,VWS V14.01,2013-07-08 08:00:00,
2013-07-08 04:02:00,67.8,66.0,29.95,SSE,163,1.0,4.0,94,0.00,,---,0.00,VWS V14.01,2013-07-08 08:02:00,
2013-07-08 04:07:00,67.9,66.1,29.95,SSE,162,2.0,4.0,94,0.00,,---,0.00,VWS V14.01,2013-07-08 08:07:00,
2013-07-08 04:12:00,67.7,65.6,29.95,SSE,163,0.0,4.0,93,0.00,,---,0.00,VWS V14.01,2013-07-08 08:12:00,
2013-07-08 04:17:00,67.7,65.9,29.95,SSE,163,2.0,4.0,94,0.00,,---,0.00,VWS V14.01,2013-07-08 08:17:00,
2013-07-08 04:22:00,67.5,65.7,29.94,SSE,162,2.0,4.0,94,0.00,,---,0.00,VWS V14.01,2013-07-08 08:22:00,
2013-07-08 04:27:00,67.5,65.7,29.95,SSE,162,1.0,4.0,94,0.00,,---,0.00,VWS V14.01,2013-07-08 08:27:00,
2013-07-08 04:30:00,67.8,66.0,29.97,SSW,204,2.0,4.0,94,0.00,,---,0.00,VWS V14.01,2013-07-08 08:30:00,
2013-07-08 04:32:00,67.7,65.9,29.95,South,178,4.0,7.0,94,0.00,,---,0.00,VWS V14.01,2013-07-08 08:32:00,
2013-07-08 04:37:00,68.0,65.9,29.95,South,179,2.0,7.0,93,0.00,,---,0.00,VWS V14.01,2013-07-08 08:37:00,
2013-07-08 04:42:00,68.0,66.2,29.96,South,177,3.0,7.0,94,0.00,,---,0.00,VWS V14.01,2013-07-08 08:42:00,
2013-07-08 04:47:00,68.0,65.9,29.96,South,177,2.0,7.0,93,0.00,,---,0.00,VWS V14.01,2013-07-08 08:47:00,
2013-07-08 04:52:00,68.0,66.2,29.96,South,177,0.0,7.0,94,0.00,,---,0.00,VWS V14.01,2013-07-08 08:52:00,
2013-07-08 04:57:00,67.9,66.1,29.96,South,177,2.0,7.0,94,0.00,,---,0.00,VWS V14.01,2013-07-08 08:57:00,
2013-07-08 05:00:00,67.9,66.1,29.95,SSE,162,2.0,5.0,94,0.00,,---,0.00,VWS V14.01,2013-07-08 09:00:00,
2013-07-08 05:02:00,67.7,65.9,29.96,South,177,0.0,2.0,94,0.00,,---,0.00,VWS V14.01,2013-07-08 09:02:00,
2013-07-08 05:07:00,67.4,65.3,29.95,South,177,1.0,2.0,93,0.00,,---,0.00,VWS V14.01,2013-07-08 09:07:00,
2013-07-08 05:12:00,67.1,65.0,29.95,South,177,0.0,2.0,93,0.00,,---,0.00,VWS V14.01,2013-07-08 09:12:00,
2013-07-08 05:17:00,67.0,65.2,29.95,South,177,0.0,3.0,94,0.00,,---,0.00,VWS V14.01,2013-07-08 09:17:00,
2013-07-08 05:22:00,66.8,65.0,29.95,South,177,0.0,3.0,94,0.00,,---,0.00,VWS V14.01,2013-07-08 09:22:00,
2013-07-08 05:27:00,66.9,65.1,29.95,South,177,0.0,3.0,94,0.00,,---,0.00,VWS V14.01,2013-07-08 09:27:00,
2013-07-08 05:30:00,67.5,65.7,29.95,South,179,2.0,5.0,94,0.00,,---,0.00,VWS V14.01,2013-07-08 09:30:00,
2013-07-08 05:32:00,66.8,65.0,29.95,South,177,0.0,3.0,94,0.00,,---,0.00,VWS V14.01,2013-07-08 09:32:00,
2013-07-08 05:37:00,66.7,64.9,29.96,South,177,0.0,3.0,94,0.00,,---,0.00,VWS V14.01,2013-07-08 09:37:00,
2013-07-08 05:42:00,66.7,64.9,29.96,South,177,1.0,3.0,94,0.00,,---,0.00,VWS V14.01,2013-07-08 09:42:00,
2013-07-08 05:47:00,66.5,64.7,29.97,South,177,0.0,3.0,94,0.00,,---,0.00,VWS V14.01,2013-07-08 09:47:00,
2013-07-08 05:52:00,66.5,64.7,29.96,South,177,2.0,3.0,94,0.00,,---,0.00,VWS V14.01,2013-07-08 09:52:00,
2013-07-08 05:57:00,66.7,64.9,29.96,South,177,2.0,4.0,94,0.00,,---,0.00,VWS V14.01,2013-07-08 09:57:00,
2013-07-08 06:00:00,67.7,65.6,29.96,South,177,0.0,7.0,93,0.00,,---,0.00,VWS V14.01,2013-07-08 10:00:00,
2013-07-08 06:02:00,66.7,64.9,29.95,South,178,0.0,3.0,94,0.00,,---,0.00,VWS V14.01,2013-07-08 10:02:00,
2013-07-08 06:07:00,66.8,65.0,29.95,South,178,4.0,4.0,94,0.00,,---,0.00,VWS V14.01,2013-07-08 10:07:00,
2013-07-08 06:12:00,66.9,65.1,29.96,SSW,202,2.0,5.0,94,0.00,,---,0.00,VWS V14.01,2013-07-08 10:12:00,
2013-07-08 06:17:00,67.0,65.2,29.96,SW,218,0.0,5.0,94,0.00,,---,0.00,VWS V14.01,2013-07-08 10:17:00,
2013-07-08 06:22:00,66.8,65.0,29.96,SW,218,2.0,5.0,94,0.00,,---,0.00,VWS V14.01,2013-07-08 10:22:00,
2013-07-08 06:27:00,66.8,65.0,29.95,SW,235,2.0,5.0,94,0.00,,---,0.00,VWS V14.01,2013-07-08 10:27:00,
2013-07-08 06:30:00,66.9,65.1,29.95,South,177,1.0,3.0,94,0.00,,---,0.00,VWS V14.01,2013-07-08 10:30:00,
2013-07-08 06:32:00,66.8,65.0,29.96,WSW,245,1.0,3.0,94,0.00,,---,0.00,VWS V14.01,2013-07-08 10:32:00,
2013-07-08 06:37:00,66.9,65.1,29.97,WSW,245,1.0,3.0,94,0.00,,---,0.00,VWS V14.01,2013-07-08 10:37:00,
2013-07-08 06:42:00,66.8,65.0,29.97,WSW,245,1.0,3.0,94,0.00,,---,0.00,VWS V14.01,2013-07-08 10:42:00,
2013-07-08 06:47:00,66.8,65.0,29.97,WSW,245,3.0,3.0,94,0.00,,---,0.00,VWS V14.01,2013-07-08 10:47:00,
2013-07-08 06:52:00,67.0,65.2,29.97,WSW,257,1.0,5.0,94,0.01,,---,0.01,VWS V14.01,2013-07-08 10:52:00,
2013-07-08 06:57:00,67.0,65.5,29.97,WSW,257,2.0,5.0,95,0.01,,---,0.01,VWS V14.01,2013-07-08 10:57:00,
2013-07-08 07:00:00,66.7,64.9,29.95,South,177,3.0,4.0,94,0.00,,---,0.00,VWS V14.01,2013-07-08 11:00:00,
2013-07-08 07:02:00,67.2,65.4,29.97,WSW,257,3.0,3.0,94,0.01,,---,0.01,VWS V14.01,2013-07-08 11:02:00,
2013-07-08 07:07:00,67.1,65.6,29.97,WSW,257,1.0,3.0,95,0.01,,---,0.01,VWS V14.01,2013-07-08 11:07:00,
2013-07-08 07:12:00,67.1,65.3,29.97,North,0,0.0,5.0,94,0.02,,---,0.02,VWS V14.01,2013-07-08 11:12:00,
2013-07-08 07:17:00,67.2,65.7,29.97,North,0,0.0,5.0,95,0.02,,---,0.02,VWS V14.01,2013-07-08 11:17:00,
2013-07-08 07:22:00,67.2,65.7,29.97,North,0,0.0,5.0,95,0.02,,---,0.02,VWS V14.01,2013-07-08 11:22:00,
2013-07-08 07:27:00,67.0,65.2,29.98,North,0,2.0,5.0,94,0.02,,---,0.02,VWS V14.01,2013-07-08 11:27:00,
2013-07-08 07:30:00,66.9,65.4,29.95,WSW,245,0.0,5.0,95,0.00,,---,0.00,VWS V14.01,2013-07-08 11:30:00,
2013-07-08 07:32:00,67.0,65.5,29.98,North,0,3.0,3.0,95,0.02,,---,0.02,VWS V14.01,2013-07-08 11:32:00,
2013-07-08 07:37:00,67.0,65.5,29.98,North,0,0.0,4.0,95,0.02,,---,0.02,VWS V14.01,2013-07-08 11:37:00,
2013-07-08 07:42:00,67.2,65.7,29.99,North,0,1.0,4.0,95,0.02,,---,0.02,VWS V14.01,2013-07-08 11:42:00,
2013-07-08 07:47:00,67.2,65.7,29.98,North,0,2.0,4.0,95,0.02,,---,0.02,VWS V14.01,2013-07-08 11:47:00,
2013-07-08 07:52:00,67.2,65.7,29.99,North,0,1.0,4.0,95,0.03,,---,0.03,VWS V14.01,2013-07-08 11:52:00,
2013-07-08 07:57:00,67.2,65.7,29.99,North,0,1.0,4.0,95,0.03,,---,0.03,VWS V14.01,2013-07-08 11:57:00,
2013-07-08 08:00:00,67.1,65.6,29.98,WSW,257,2.0,5.0,95,0.01,,---,0.01,VWS V14.01,2013-07-08 12:00:00,
2013-07-08 08:02:00,67.0,65.5,29.99,North,0,1.0,4.0,95,0.02,,---,0.03,VWS V14.01,2013-07-08 12:02:00,
2013-07-08 08:07:00,67.2,65.7,29.98,North,0,1.0,4.0,95,0.03,,---,0.04,VWS V14.01,2013-07-08 12:07:00,
2013-07-08 08:12:00,67.2,65.7,29.98,NNE,27,4.0,6.0,95,0.03,,---,0.04,VWS V14.01,2013-07-08 12:12:00,
2013-07-08 08:17:00,67.2,65.7,29.98,NNE,27,4.0,6.0,95,0.04,,---,0.05,VWS V14.01,2013-07-08 12:17:00,
2013-07-08 08:23:00,67.2,65.7,29.97,NNE,27,1.0,6.0,95,0.04,,---,0.05,VWS V14.01,2013-07-08 12:23:00,
2013-07-08 08:28:00,67.2,65.7,29.96,NNE,27,2.0,6.0,95,0.05,,---,0.06,VWS V14.01,2013-07-08 12:28:00,
2013-07-08 08:30:00,67.0,65.5,29.98,North,0,1.0,5.0,95,0.02,,---,0.02,VWS V14.01,2013-07-08 12:30:00,
2013-07-08 08:33:00,67.2,65.7,29.96,NNE,27,2.0,3.0,95,0.04,,---,0.06,VWS V14.01,2013-07-08 12:33:00,
2013-07-08 08:38:00,67.4,65.9,29.98,NE,43,1.0,3.0,95,0.04,,---,0.06,VWS V14.01,2013-07-08 12:38:00,
2013-07-08 08:43:00,67.5,66.0,29.97,NE,43,1.0,3.0,95,0.04,,---,0.06,VWS V14.01,2013-07-08 12:43:00,
2013-07-08 08:48:00,67.5,66.0,29.97,ENE,57,1.0,5.0,95,0.04,,---,0.06,VWS V14.01,2013-07-08 12:48:00,
2013-07-08 08:53:00,67.5,66.0,29.97,ENE,75,2.0,5.0,95,0.04,,---,0.06,VWS V14.01,2013-07-08 12:53:00,
2013-07-08 08:58:00,67.5,66.0,29.96,ENE,75,2.0,5.0,95,0.04,,---,0.06,VWS V14.01,2013-07-08 12:58:00,
2013-07-08 09:00:00,67.0,65.5,29.98,North,0,3.0,5.0,95,0.03,,---,0.03,VWS V14.01,2013-07-08 13:00:00,
2013-07-08 09:03:00,67.5,66.0,29.97,ENE,75,2.0,3.0,95,0.04,,---,0.07,VWS V14.01,2013-07-08 13:03:00,
2013-07-08 09:08:00,67.5,66.3,29.97,ENE,75,0.0,3.0,96,0.04,,---,0.07,VWS V14.01,2013-07-08 13:08:00,
2013-07-08 09:13:00,67.5,66.0,29.97,ENE,75,0.0,3.0,95,0.04,,---,0.07,VWS V14.01,2013-07-08 13:13:00,
2013-07-08 09:18:00,67.5,65.7,29.97,ENE,75,2.0,3.0,94,0.04,,---,0.07,VWS V14.01,2013-07-08 13:18:00,
2013-07-08 09:23:00,67.5,66.0,29.99,ENE,76,2.0,4.0,95,0.04,,---,0.07,VWS V14.01,2013-07-08 13:23:00,
2013-07-08 09:28:00,67.7,66.2,30.00,East,89,1.0,4.0,95,0.05,,---,0.08,VWS V14.01,2013-07-08 13:28:00,
2013-07-08 09:29:00,67.7,66.2,30.00,East,90,1.0,4.0,95,0.05,,---,0.08,VWS V14.01,2013-07-08 13:29:00,
2013-07-08 09:30:00,67.2,65.7,29.96,NNE,27,1.0,6.0,95,0.05,,---,0.06,VWS V14.01,2013-07-08 13:30:00,
2013-07-08 09:34:00,67.8,66.3,30.01,West,268,4.0,5.0,95,0.03,,---,0.09,VWS V14.01,2013-07-08 13:34:00,
2013-07-08 09:39:00,67.8,66.3,30.01,WSW,250,3.0,7.0,95,0.05,,---,0.11,VWS V14.01,2013-07-08 13:39:00,
2013-07-08 09:44:00,67.8,66.3,30.00,West,264,2.0,7.0,95,0.07,,---,0.13,VWS V14.01,2013-07-08 13:44:00,
2013-07-08 09:49:00,67.8,66.6,30.00,West,279,5.0,7.0,96,0.08,,---,0.14,VWS V14.01,2013-07-08 13:49:00,
2013-07-08 09:54:00,67.9,66.4,30.00,NNW,331,1.0,7.0,95,0.10,,---,0.16,VWS V14.01,2013-07-08 13:54:00,
2013-07-08 09:59:00,67.7,66.2,30.02,SW,233,3.0,7.0,95,0.12,,---,0.18,VWS V14.01,2013-07-08 13:59:00,
2013-07-08 10:00:00,67.5,66.0,29.97,ENE,75,0.0,5.0,95,0.04,,---,0.06,VWS V14.01,2013-07-08 14:00:00,
2013-07-08 10:04:00,67.5,66.0,29.99,East,91,2.0,6.0,95,0.14,,---,0.20,VWS V14.01,2013-07-08 14:04:00,
2013-07-08 10:09:00,67.5,66.0,30.00,South,169,3.0,7.0,95,0.16,,---,0.22,VWS V14.01,2013-07-08 14:09:00,
2013-07-08 10:14:00,67.5,66.3,29.99,NE,42,2.0,7.0,96,0.18,,---,0.24,VWS V14.01,2013-07-08 14:14:00,
2013-07-08 10:19:00,67.5,66.0,29.98,East,88,2.0,7.0,95,0.20,,---,0.26,VWS V14.01,2013-07-08 14:19:00,
2013-07-08 10:24:00,67.5,66.0,29.98,East,88,2.0,7.0,95,0.22,,---,0.28,VWS V14.01,2013-07-08 14:24:00,
2013-07-08 10:29:00,67.7,66.2,29.98,East,88,3.0,7.0,95,0.23,,---,0.29,VWS V14.01,2013-07-08 14:29:00,
2013-07-08 10:30:00,67.7,66.2,30.00,WSW,255,3.0,5.0,95,0.05,,---,0.08,VWS V14.01,2013-07-08 14:30:00,
2013-07-08 10:34:00,67.6,65.8,29.98,East,90,1.0,4.0,94,0.22,,---,0.30,VWS V14.01,2013-07-08 14:34:00,
2013-07-08 10:39:00,67.5,66.0,29.98,ENE,66,1.0,4.0,95,0.23,,---,0.31,VWS V14.01,2013-07-08 14:39:00,
2013-07-08 10:44:00,67.4,65.9,29.98,East,80,2.0,7.0,95,0.24,,---,0.32,VWS V14.01,2013-07-08 14:44:00,
2013-07-08 10:49:00,67.4,65.9,29.98,NE,56,2.0,7.0,95,0.24,,---,0.32,VWS V14.01,2013-07-08 14:49:00,
2013-07-08 10:54:00,67.4,65.9,29.98,ESE,111,4.0,7.0,95,0.25,,---,0.33,VWS V14.01,2013-07-08 14:54:00,
2013-07-08 10:59:00,67.4,65.9,29.97,SE,129,1.0,7.0,95,0.25,,---,0.33,VWS V14.01,2013-07-08 14:59:00,
2013-07-08 11:00:00,67.7,66.2,30.01,SW,233,1.0,7.0,95,0.12,,---,0.18,VWS V14.01,2013-07-08 15:00:00,
2013-07-08 11:04:00,67.5,66.0,29.97,SE,140,3.0,6.0,95,0.16,,---,0.34,VWS V14.01,2013-07-08 15:04:00,
2013-07-08 11:09:00,67.5,66.0,29.97,ESE,109,1.0,6.0,95,0.17,,---,0.35,VWS V14.01,2013-07-08 15:09:00,
2013-07-08 11:14:00,67.7,66.2,29.96,ESE,109,0.0,6.0,95,0.17,,---,0.35,VWS V14.01,2013-07-08 15:14:00,
2013-07-08 11:19:00,68.0,66.5,29.97,SSW,199,2.0,6.0,95,0.18,,---,0.36,VWS V14.01,2013-07-08 15:19:00,
2013-07-08 11:24:00,68.2,66.7,29.96,SW,218,2.0,6.0,95,0.18,,---,0.36,VWS V14.01,2013-07-08 15:24:00,
2013-07-08 11:29:00,68.3,66.5,29.96,South,186,3.0,6.0,94,0.18,,---,0.36,VWS V14.01,2013-07-08 15:29:00,
2013-07-08 11:30:00,67.7,66.2,29.98,East,88,1.0,7.0,95,0.23,,---,0.29,VWS V14.01,2013-07-08 15:30:00,
2013-07-08 11:34:00,68.3,66.8,29.97,South,185,4.0,8.0,95,0.08,,---,0.37,VWS V14.01,2013-07-08 15:34:00,
2013-07-08 11:39:00,68.4,66.6,29.96,South,185,2.0,8.0,94,0.08,,---,0.37,VWS V14.01,2013-07-08 15:39:00,
2013-07-08 11:44:00,68.3,66.5,29.96,South,186,1.0,8.0,94,0.08,,---,0.37,VWS V14.01,2013-07-08 15:44:00,
2013-07-08 11:49:00,68.2,66.4,29.96,SSE,150,2.0,8.0,94,0.08,,---,0.37,VWS V14.01,2013-07-08 15:49:00,
2013-07-08 11:54:00,68.2,66.4,29.95,East,83,2.0,8.0,94,0.08,,---,0.37,VWS V14.01,2013-07-08 15:54:00,
2013-07-08 11:59:00,68.2,66.4,29.96,South,174,3.0,8.0,94,0.08,,---,0.37,VWS V14.01,2013-07-08 15:59:00,
2013-07-08 12:00:00,67.4,65.9,29.97,SE,129,2.0,7.0,95,0.25,,---,0.33,VWS V14.01,2013-07-08 16:00:00,
2013-07-08 12:04:00,68.5,66.7,29.96,SSE,168,3.0,7.0,94,0.04,,---,0.37,VWS V14.01,2013-07-08 16:04:00,
2013-07-08 12:09:00,68.7,66.9,29.96,SW,223,3.0,8.0,94,0.04,,---,0.37,VWS V14.01,2013-07-08 16:09:00,
2013-07-08 12:14:00,68.7,66.9,29.97,SW,223,2.0,8.0,94,0.04,,---,0.37,VWS V14.01,2013-07-08 16:14:00,
2013-07-08 12:19:00,68.7,66.9,29.97,SSE,155,3.0,9.0,94,0.04,,---,0.37,VWS V14.01,2013-07-08 16:19:00,
2013-07-08 12:24:00,68.9,67.1,29.96,South,183,2.0,9.0,94,0.05,,---,0.38,VWS V14.01,2013-07-08 16:24:00,
2013-07-08 12:29:00,68.7,66.9,29.96,South,178,1.0,9.0,94,0.05,,---,0.38,VWS V14.01,2013-07-08 16:29:00,
2013-07-08 12:30:00,68.4,66.6,29.96,South,186,1.0,6.0,94,0.18,,---,0.36,VWS V14.01,2013-07-08 16:30:00,
2013-07-08 12:34:00,68.7,66.9,29.96,NE,49,3.0,7.0,94,0.02,,---,0.38,VWS V14.01,2013-07-08 16:34:00,
2013-07-08 12:39:00,68.7,66.9,29.97,SSW,192,0.0,7.0,94,0.02,,---,0.38,VWS V14.01,2013-07-08 16:39:00,
2013-07-08 12:45:00,68.8,67.0,29.96,SSW,196,1.0,7.0,94,0.02,,---,0.38,VWS V14.01,2013-07-08 16:45:00,
2013-07-08 12:50:00,69.0,67.2,29.96,SSW,196,1.0,7.0,94,0.02,,---,0.38,VWS V14.01,2013-07-08 16:50:00,
2013-07-08 12:55:00,69.2,67.4,29.96,ESE,105,1.0,7.0,94,0.02,,---,0.38,VWS V14.01,2013-07-08 16:55:00,
2013-07-08 13:00:00,69.5,67.7,29.96,NNW,343,2.0,3.0,94,0.01,,---,0.38,VWS V14.01,2013-07-08 17:00:00,
2013-07-08 13:05:00,70.0,68.2,29.96,SSW,211,4.0,5.0,94,0.02,,---,0.39,VWS V14.01,2013-07-08 17:05:00,
2013-07-08 13:10:00,70.3,68.5,29.96,SW,224,3.0,5.0,94,0.02,,---,0.39,VWS V14.01,2013-07-08 17:10:00,
2013-07-08 13:15:00,70.5,68.7,29.96,SW,220,2.0,5.0,94,0.02,,---,0.39,VWS V14.01,2013-07-08 17:15:00,
2013-07-08 13:21:00,70.6,68.5,29.96,South,188,0.0,5.0,93,0.02,,---,0.39,VWS V14.01,2013-07-08 17:21:00,
2013-07-08 13:26:00,70.7,68.3,29.96,South,188,0.0,5.0,92,0.02,,---,0.39,VWS V14.01,2013-07-08 17:26:00,
2013-07-08 13:30:00,68.7,66.9,29.96,South,172,2.0,9.0,94,0.05,,---,0.38,VWS V14.01,2013-07-08 17:30:00,
2013-07-08 13:31:00,70.8,68.7,29.96,South,187,0.0,2.0,93,0.01,,---,0.39,VWS V14.01,2013-07-08 17:31:00,
2013-07-08 13:36:00,71.2,69.1,29.96,South,172,1.0,3.0,93,0.01,,---,0.39,VWS V14.01,2013-07-08 17:36:00,
2013-07-08 13:41:00,71.5,69.1,29.95,ENE,72,0.0,4.0,92,0.01,,---,0.39,VWS V14.01,2013-07-08 17:41:00,
2013-07-08 13:46:00,72.0,69.6,29.95,ESE,103,1.0,6.0,92,0.01,,---,0.39,VWS V14.01,2013-07-08 17:46:00,
2013-07-08 13:51:00,72.4,69.9,29.95,ENE,63,1.0,6.0,92,0.01,,---,0.39,VWS V14.01,2013-07-08 17:51:00,
2013-07-08 13:56:00,72.9,70.1,29.96,ENE,64,0.0,6.0,91,0.01,,---,0.39,VWS V14.01,2013-07-08 17:56:00,
2013-07-08 14:00:00,69.5,67.7,29.96,NNW,343,0.0,7.0,94,0.02,,---,0.38,VWS V14.01,2013-07-08 18:00:00,
2013-07-08 14:01:00,73.4,70.3,29.95,ENE,72,4.0,4.0,90,0.01,,---,0.39,VWS V14.01,2013-07-08 18:01:00,
2013-07-08 14:06:00,73.4,69.6,29.95,East,85,4.0,7.0,88,0.01,,---,0.39,VWS V14.01,2013-07-08 18:06:00,
2013-07-08 14:12:00,73.2,69.4,29.95,ESE,119,4.0,7.0,88,0.01,,---,0.39,VWS V14.01,2013-07-08 18:12:00,
2013-07-08 14:17:00,73.4,69.6,29.95,East,96,2.0,7.0,88,0.01,,---,0.39,VWS V14.01,2013-07-08 18:17:00,
2013-07-08 14:22:00,73.9,70.5,29.95,ESE,114,4.0,8.0,89,0.01,,---,0.39,VWS V14.01,2013-07-08 18:22:00,
2013-07-08 14:27:00,73.9,70.1,29.95,ESE,103,1.0,8.0,88,0.01,,---,0.39,VWS V14.01,2013-07-08 18:27:00,
2013-07-08 14:30:00,70.8,68.7,29.96,South,188,1.0,5.0,93,0.02,,---,0.39,VWS V14.01,2013-07-08 18:30:00,
2013-07-08 14:33:00,74.1,70.3,29.95,ENE,66,2.0,5.0,88,0.00,,---,0.39,VWS V14.01,2013-07-08 18:33:00,
2013-07-08 14:38:00,74.2,69.8,29.95,East,97,3.0,5.0,86,0.00,,---,0.39,VWS V14.01,2013-07-08 18:38:00,
2013-07-08 14:44:00,73.7,68.9,29.95,East,87,3.0,8.0,85,0.00,,---,0.39,VWS V14.01,2013-07-08 18:44:00,
2013-07-08 14:49:00,73.2,68.8,29.96,SSW,211,2.0,8.0,86,0.00,,---,0.39,VWS V14.01,2013-07-08 18:49:00,
2013-07-08 14:54:00,73.1,69.0,29.95,SSW,203,2.0,8.0,87,0.00,,---,0.39,VWS V14.01,2013-07-08 18:54:00,
2013-07-08 14:59:00,73.1,68.7,29.95,SSW,204,5.0,8.0,86,0.00,,---,0.39,VWS V14.01,2013-07-08 18:59:00,
2013-07-08 15:00:00,73.2,70.4,29.95,ENE,66,1.0,6.0,91,0.01,,---,0.39,VWS V14.01,2013-07-08 19:00:00,
2013-07-08 15:04:00,73.1,68.7,29.95,SW,220,3.0,4.0,86,0.00,,---,0.39,VWS V14.01,2013-07-08 19:04:00,
2013-07-08 15:09:00,73.2,68.8,29.95,SW,220,1.0,4.0,86,0.00,,---,0.39,VWS V14.01,2013-07-08 19:09:00,
2013-07-08 15:14:00,73.2,68.8,29.95,South,190,1.0,6.0,86,0.00,,---,0.39,VWS V14.01,2013-07-08 19:14:00,
2013-07-08 15:19:00,73.4,68.6,29.96,SW,216,2.0,6.0,85,0.00,,---,0.39,VWS V14.01,2013-07-08 19:19:00,
2013-07-08 15:24:00,73.4,68.6,29.95,ENE,76,0.0,8.0,85,0.00,,---,0.39,VWS V14.01,2013-07-08 19:24:00,
2013-07-08 15:29:00,73.7,68.9,29.95,SSW,207,1.0,8.0,85,0.00,,---,0.39,VWS V14.01,2013-07-08 19:29:00,
2013-07-08 15:30:00,73.9,69.8,29.95,East,80,2.0,8.0,87,0.01,,---,0.39,VWS V14.01,2013-07-08 19:30:00,
2013-07-08 15:35:00,73.7,68.9,29.95,SSW,213,0.0,5.0,85,0.00,,---,0.39,VWS V14.01,2013-07-08 19:35:00,
2013-07-08 15:40:00,74.1,69.7,29.95,ESE,111,2.0,5.0,86,0.00,,---,0.39,VWS V14.01,2013-07-08 19:40:00,
2013-07-08 15:45:00,74.1,69.0,29.95,ESE,111,2.0,6.0,84,0.00,,---,0.39,VWS V14.01,2013-07-08 19:45:00,
2013-07-08 15:51:00,74.1,69.0,29.95,SSW,200,3.0,7.0,84,0.00,,---,0.39,VWS V14.01,2013-07-08 19:51:00,
2013-07-08 15:56:00,74.1,69.3,29.95,ESE,104,1.0,7.0,85,0.00,,---,0.39,VWS V14.01,2013-07-08 19:56:00,
2013-07-08 16:00:00,73.1,68.7,29.95,South,186,4.0,8.0,86,0.00,,---,0.39,VWS V14.01,2013-07-08 20:00:00,
2013-07-08 16:01:00,74.2,69.1,29.95,SW,218,3.0,5.0,84,0.00,,---,0.39,VWS V14.01,2013-07-08 20:01:00,
2013-07-08 16:06:00,74.4,69.6,29.95,SE,131,4.0,5.0,85,0.00,,---,0.39,VWS V14.01,2013-07-08 20:06:00,
2013-07-08 16:11:00,74.6,69.8,29.95,ESE,115,6.0,6.0,85,0.00,,---,0.39,VWS V14.01,2013-07-08 20:11:00,
2013-07-08 16:16:00,74.9,70.1,29.95,SSW,204,0.0,6.0,85,0.00,,---,0.39,VWS V14.01,2013-07-08 20:16:00,
2013-07-08 16:22:00,75.6,70.4,29.95,North,8,5.0,6.0,84,0.00,,---,0.39,VWS V14.01,2013-07-08 20:22:00,
2013-07-08 16:27:00,76.0,70.1,29.94,ESE,107,2.0,7.0,82,0.00,,---,0.39,VWS V14.01,2013-07-08 20:27:00,
2013-07-08 16:30:00,73.7,68.9,29.96,SSW,207,1.0,8.0,85,0.00,,---,0.39,VWS V14.01,2013-07-08 20:30:00,
2013-07-08 16:32:00,76.0,69.8,29.95,West,260,3.0,6.0,81,0.00,,---,0.39,VWS V14.01,2013-07-08 20:32:00,
2013-07-08 16:37:00,75.6,69.7,29.94,ENE,71,1.0,7.0,82,0.00,,---,0.39,VWS V14.01,2013-07-08 20:37:00,
2013-07-08 16:43:00,75.1,69.6,29.94,East,92,5.0,8.0,83,0.00,,---,0.39,VWS V14.01,2013-07-08 20:43:00,
2013-07-08 16:48:00,74.9,69.7,29.95,NNE,23,3.0,8.0,84,0.00,,---,0.39,VWS V14.01,2013-07-08 20:48:00,
2013-07-08 16:53:00,74.9,69.4,29.94,ENE,62,2.0,8.0,83,0.00,,---,0.39,VWS V14.01,2013-07-08 20:53:00,
2013-07-08 16:58:00,74.6,69.1,29.95,NE,54,1.0,8.0,83,0.00,,---,0.39,VWS V14.01,2013-07-08 20:58:00,
2013-07-08 17:00:00,74.2,69.4,29.95,SW,223,4.0,7.0,85,0.00,,---,0.39,VWS V14.01,2013-07-08 21:00:00,
2013-07-08 17:03:00,74.6,69.8,29.94,East,79,2.0,4.0,85,0.00,,---,0.39,VWS V14.01,2013-07-08 21:03:00,
2013-07-08 17:09:00,74.3,69.5,29.95,SE,145,2.0,4.0,85,0.00,,---,0.39,VWS V14.01,2013-07-08 21:09:00,
2013-07-08 17:14:00,74.1,69.3,29.95,SSW,205,3.0,5.0,85,0.00,,---,0.39,VWS V14.01,2013-07-08 21:14:00,
2013-07-08 17:19:00,73.9,69.4,29.94,SW,218,4.0,5.0,86,0.00,,---,0.39,VWS V14.01,2013-07-08 21:19:00,
2013-07-08 17:24:00,73.1,68.3,29.95,SW,232,2.0,8.0,85,0.00,,---,0.39,VWS V14.01,2013-07-08 21:24:00,
2013-07-08 17:30:00,72.2,67.8,29.95,WNW,300,4.0,5.0,86,0.00,,---,0.39,VWS V14.01,2013-07-08 21:30:00,
2013-07-08 17:35:00,71.4,67.3,29.95,NW,310,1.0,5.0,87,0.00,,---,0.39,VWS V14.01,2013-07-08 21:35:00,
2013-07-08 17:40:00,70.8,67.4,29.95,NW,308,1.0,5.0,89,0.00,,---,0.39,VWS V14.01,2013-07-08 21:40:00,
2013-07-08 17:45:00,70.5,67.4,29.95,NW,305,1.0,5.0,90,0.01,,---,0.40,VWS V14.01,2013-07-08 21:45:00,
2013-07-08 17:50:00,70.2,67.4,29.95,WNW,303,1.0,5.0,91,0.02,,---,0.41,VWS V14.01,2013-07-08 21:50:00,
2013-07-08 17:55:00,70.0,67.6,29.94,WNW,303,0.0,5.0,92,0.03,,---,0.42,VWS V14.01,2013-07-08 21:55:00,
2013-07-08 18:00:00,70.0,67.6,29.95,WNW,303,1.0,2.0,92,0.04,,---,0.43,VWS V14.01,2013-07-08 22:00:00,
2013-07-08 18:05:00,70.0,67.9,29.94,WNW,303,0.0,2.0,93,0.05,,---,0.44,VWS V14.01,2013-07-08 22:05:00,
2013-07-08 18:10:00,70.0,67.9,29.94,WNW,303,2.0,3.0,93,0.05,,---,0.44,VWS V14.01,2013-07-08 22:10:00,
2013-07-08 18:15:00,70.0,67.9,29.94,WNW,302,1.0,3.0,93,0.06,,---,0.45,VWS V14.01,2013-07-08 22:15:00,
2013-07-08 18:21:00,70.0,67.9,29.94,WNW,303,2.0,4.0,93,0.07,,---,0.46,VWS V14.01,2013-07-08 22:21:00,
2013-07-08 18:26:00,70.2,68.4,29.94,NW,305,1.0,4.0,94,0.08,,---,0.47,VWS V14.01,2013-07-08 22:26:00,
2013-07-08 18:30:00,72.2,67.8,29.95,WNW,299,5.0,8.0,86,0.00,,---,0.39,VWS V14.01,2013-07-08 22:30:00,
2013-07-08 18:31:00,70.7,68.9,29.94,NW,308,0.0,2.0,94,0.09,,---,0.48,VWS V14.01,2013-07-08 22:31:00,
2013-07-08 18:37:00,71.0,69.5,29.93,NW,309,0.0,3.0,95,0.09,,---,0.48,VWS V14.01,2013-07-08 22:37:00,
2013-07-08 18:42:00,71.2,69.7,29.94,NW,309,1.0,4.0,95,0.09,,---,0.48,VWS V14.01,2013-07-08 22:42:00,
2013-07-08 18:47:00,71.7,70.2,29.93,NW,308,2.0,4.0,95,0.09,,---,0.48,VWS V14.01,2013-07-08 22:47:00,
2013-07-08 18:52:00,72.0,70.5,29.93,SSE,158,0.0,4.0,95,0.09,,---,0.48,VWS V14.01,2013-07-08 22:52:00,
2013-07-08 18:57:00,72.0,70.2,29.93,SSE,153,0.0,4.0,94,0.09,,---,0.48,VWS V14.01,2013-07-08 22:57:00,
2013-07-08 19:00:00,70.0,67.6,29.95,WNW,303,1.0,5.0,92,0.04,,---,0.43,VWS V14.01,2013-07-08 23:00:00,
2013-07-08 19:03:00,72.0,70.2,29.94,SSE,154,3.0,4.0,94,0.05,,---,0.48,VWS V14.01,2013-07-08 23:03:00,
2013-07-08 19:08:00,72.0,69.9,29.94,NW,308,3.0,5.0,93,0.05,,---,0.48,VWS V14.01,2013-07-08 23:08:00,
2013-07-08 19:13:00,72.2,70.4,29.94,NW,307,2.0,5.0,94,0.05,,---,0.48,VWS V14.01,2013-07-08 23:13:00,
2013-07-08 19:19:00,72.7,70.6,29.94,WNW,292,1.0,5.0,93,0.05,,---,0.48,VWS V14.01,2013-07-08 23:19:00,
2013-07-08 19:24:00,73.1,71.0,29.94,WNW,294,0.0,5.0,93,0.05,,---,0.48,VWS V14.01,2013-07-08 23:24:00,
2013-07-08 19:29:00,73.6,71.1,29.94,NW,309,2.0,5.0,92,0.05,,---,0.48,VWS V14.01,2013-07-08 23:29:00,
2013-07-08 19:30:00,70.5,68.7,29.93,NW,308,0.0,4.0,94,0.08,,---,0.47,VWS V14.01,2013-07-08 23:30:00,
2013-07-08 19:34:00,73.6,70.5,29.94,NW,308,1.0,3.0,90,0.01,,---,0.48,VWS V14.01,2013-07-08 23:34:00,
2013-07-08 19:40:00,73.4,70.6,29.94,NW,309,1.0,3.0,91,0.01,,---,0.48,VWS V14.01,2013-07-08 23:40:00,
2013-07-08 19:45:00,73.2,70.4,29.94,NW,307,0.0,3.0,91,0.01,,---,0.48,VWS V14.01,2013-07-08 23:45:00,
2013-07-08 19:50:00,72.9,70.1,29.95,WNW,294,1.0,3.0,91,0.01,,---,0.48,VWS V14.01,2013-07-08 23:50:00,
2013-07-08 19:55:00,72.7,69.9,29.95,WNW,284,1.0,3.0,91,0.01,,---,0.48,VWS V14.01,2013-07-08 23:55:00,
2013-07-08 20:00:00,72.5,69.7,29.95,WNW,295,0.0,0.0,91,0.00,,---,0.48,VWS V14.01,2013-07-09 00:00:00,
2013-07-08 20:05:00,72.5,69.7,29.95,WNW,285,1.0,2.0,91,0.00,,---,0.48,VWS V14.01,2013-07-09 00:05:00,
2013-07-08 20:11:00,72.4,69.6,29.95,WNW,283,1.0,2.0,91,0.00,,---,0.48,VWS V14.01,2013-07-09 00:11:00,
2013-07-08 20:16:00,72.2,69.8,29.95,West,280,0.0,2.0,92,0.00,,---,0.48,VWS V14.01,2013-07-09 00:16:00,
2013-07-08 20:21:00,72.2,69.8,29.95,WNW,285,0.0,2.0,92,0.00,,---,0.48,VWS V14.01,2013-07-09 00:21:00,
2013-07-08 20:26:00,72.2,69.8,29.96,WNW,282,0.0,2.0,92,0.00,,---,0.48,VWS V14.01,2013-07-09 00:26:00,
2013-07-08 20:30:00,73.6,71.1,29.94,NW,309,2.0,5.0,92,0.05,,---,0.48,VWS V14.01,2013-07-09 00:30:00,
2013-07-08 20:31:00,72.2,69.8,29.96,NW,309,0.0,1.0,92,0.00,,---,0.48,VWS V14.01,2013-07-09 00:31:00,
2013-07-08 20:36:00,72.4,69.9,29.96,NW,309,0.0,2.0,92,0.00,,---,0.48,VWS V14.01,2013-07-09 00:36:00,
2013-07-08 20:42:00,72.5,70.1,29.96,NW,309,1.0,2.0,92,0.00,,---,0.48,VWS V14.01,2013-07-09 00:42:00,
2013-07-08 20:47:00,72.2,69.8,29.96,NW,307,0.0,2.0,92,0.00,,---,0.48,VWS V14.01,2013-07-09 00:47:00,
2013-07-08 20:52:00,72.0,69.6,29.96,NW,309,0.0,2.0,92,0.00,,---,0.48,VWS V14.01,2013-07-09 00:52:00,
2013-07-08 20:58:00,71.9,69.4,29.96,NW,309,0.0,2.0,92,0.00,,---,0.48,VWS V14.01,2013-07-09 00:58:00,
2013-07-08 21:00:00,72.7,69.9,29.95,WNW,295,0.0,3.0,91,0.01,,---,0.48,VWS V14.01,2013-07-09 01:00:00,
2013-07-08 21:03:00,71.7,69.6,29.96,NW,308,1.0,1.0,93,0.00,,---,0.48,VWS V14.01,2013-07-09 01:03:00,
2013-07-08 21:09:00,71.5,69.4,29.96,NW,305,0.0,3.0,93,0.00,,---,0.48,VWS V14.01,2013-07-09 01:09:00,
2013-07-08 21:15:00,71.3,69.2,29.96,NW,309,0.0,3.0,93,0.00,,---,0.48,VWS V14.01,2013-07-09 01:15:00,
2013-07-08 21:20:00,71.2,69.4,29.96,NW,309,0.0,3.0,94,0.00,,---,0.48,VWS V14.01,2013-07-09 01:20:00,
2013-07-08 21:25:00,71.2,69.4,29.96,NW,309,0.0,3.0,94,0.00,,---,0.48,VWS V14.01,2013-07-09 01:25:00,
2013-07-08 21:30:00,72.2,69.8,29.95,NW,309,0.0,2.0,92,0.00,,---,0.48,VWS V14.01,2013-07-09 01:30:00,
2013-07-08 21:31:00,71.2,69.4,29.96,NW,309,0.0,0.0,94,0.00,,---,0.48,VWS V14.01,2013-07-09 01:31:00,
2013-07-08 21:36:00,71.2,69.4,29.96,NW,309,0.0,0.0,94,0.00,,---,0.48,VWS V14.01,2013-07-09 01:36:00,
2013-07-08 21:42:00,71.0,69.2,29.97,NW,309,1.0,3.0,94,0.00,,---,0.48,VWS V14.01,2013-07-09 01:42:00,
2013-07-08 21:47:00,71.0,69.5,29.97,NW,309,1.0,3.0,95,0.00,,---,0.48,VWS V14.01,2013-07-09 01:47:00,
2013-07-08 21:52:00,71.0,69.2,29.97,NW,309,0.0,3.0,94,0.00,,---,0.48,VWS V14.01,2013-07-09 01:52:00,
2013-07-08 21:57:00,71.0,69.5,29.97,NW,309,1.0,3.0,95,0.00,,---,0.48,VWS V14.01,2013-07-09 01:57:00,
2013-07-08 22:00:00,71.9,69.4,29.96,NW,309,0.0,2.0,92,0.00,,---,0.48,VWS V14.01,2013-07-09 02:00:00,
2013-07-08 22:02:00,71.0,69.5,29.97,NW,309,0.0,1.0,95,0.00,,---,0.48,VWS V14.01,2013-07-09 02:02:00,
2013-07-08 22:08:00,71.0,69.5,29.97,NW,309,0.0,2.0,95,0.00,,---,0.48,VWS V14.01,2013-07-09 02:08:00,
2013-07-08 22:13:00,70.8,69.3,29.97,NW,309,0.0,2.0,95,0.00,,---,0.48,VWS V14.01,2013-07-09 02:13:00,
2013-07-08 22:18:00,70.8,69.3,29.98,NW,308,1.0,2.0,95,0.00,,---,0.48,VWS V14.01,2013-07-09 02:18:00,
2013-07-08 22:24:00,70.8,69.3,29.98,NW,308,1.0,2.0,95,0.00,,---,0.48,VWS V14.01,2013-07-09 02:24:00,
2013-07-08 22:30:00,70.7,69.2,29.98,NW,306,0.0,2.0,95,0.00,,---,0.48,VWS V14.01,2013-07-09 02:30:00,
2013-07-08 22:35:00,70.7,69.2,29.98,NW,305,1.0,2.0,95,0.00,,---,0.48,VWS V14.01,2013-07-09 02:35:00,
2013-07-08 22:40:00,70.5,69.0,29.98,NW,304,0.0,2.0,95,0.00,,---,0.48,VWS V14.01,2013-07-09 02:40:00,
2013-07-08 22:45:00,70.5,69.0,29.98,NW,304,0.0,2.0,95,0.00,,---,0.48,VWS V14.01,2013-07-09 02:45:00,
2013-07-08 22:50:00,70.3,68.8,29.98,WNW,301,0.0,2.0,95,0.00,,---,0.48,VWS V14.01,2013-07-09 02:50:00,
2013-07-08 22:55:00,70.3,68.8,29.98,WNW,291,0.0,2.0,95,0.00,,---,0.48,VWS V14.01,2013-07-09 02:55:00,
2013-07-08 23:00:00,70.2,68.7,29.98,NW,310,0.0,0.0,95,0.00,,---,0.48,VWS V14.01,2013-07-09 03:00:00,
2013-07-08 23:06:00,70.2,68.7,29.98,NW,310,0.0,0.0,95,0.00,,---,0.48,VWS V14.01,2013-07-09 03:06:00,
2013-07-08 23:11:00,70.0,68.5,29.98,NW,310,0.0,2.0,95,0.00,,---,0.48,VWS V14.01,2013-07-09 03:11:00,
2013-07-08 23:16:00,69.8,68.3,29.98,NW,310,0.0,3.0,95,0.00,,---,0.48,VWS V14.01,2013-07-09 03:16:00,
2013-07-08 23:21:00,69.7,68.2,29.98,NW,310,1.0,3.0,95,0.00,,---,0.48,VWS V14.01,2013-07-09 03:21:00,
2013-07-08 23:27:00,69.5,68.0,29.98,NW,309,3.0,3.0,95,0.00,,---,0.48,VWS V14.01,2013-07-09 03:27:00,
2013-07-08 23:30:00,70.7,69.2,29.98,NW,306,0.0,2.0,95,0.00,,---,0.48,VWS V14.01,2013-07-09 03:30:00,
2013-07-08 23:32:00,69.3,67.8,29.99,NW,310,0.0,3.0,95,0.00,,---,0.48,VWS V14.01,2013-07-09 03:32:00,
2013-07-08 23:37:00,69.3,68.1,29.98,North,3,5.0,6.0,96,0.00,,---,0.48,VWS V14.01,2013-07-09 03:37:00,
2013-07-08 23:42:00,69.2,67.7,29.98,NNE,15,4.0,6.0,95,0.00,,---,0.48,VWS V14.01,2013-07-09 03:42:00,
2013-07-08 23:47:00,69.0,67.5,29.99,NNE,15,3.0,6.0,95,0.00,,---,0.48,VWS V14.01,2013-07-09 03:47:00,
2013-07-08 23:52:00,68.9,67.4,29.99,NNE,15,4.0,7.0,95,0.00,,---,0.48,VWS V14.01,2013-07-09 03:52:00,
2013-07-08 23:57:00,68.7,67.2,29.99,NNE,15,2.0,7.0,95,0.00,,---,0.48,VWS V14.01,2013-07-09 03:57:00,